Känerkinden
Datum - Zeit
TemperaturTaupunktFeuchteSolar Wind aus Richtung WindböenLuftdruck (QFF)RegenRegenstärkeTrend
05.09.2026 - 05.45Uhr20.1 °C14.2 °C69 %0.0 W/m²11.8 km/hWest-SW17.6 km/h1017.5 hPa0.0 mm0.0 mm/hsonnig
05.09.2026 - 05.50Uhr20.1 °C14.2 °C69 %0.0 W/m²11.3 km/hWesten22.7 km/h1017.6 hPa0.0 mm0.0 mm/hsonnig
05.09.2026 - 05.55Uhr20.1 °C14.4 °C70 %0.0 W/m²11.0 km/hWesten16.2 km/h1017.6 hPa0.0 mm0.0 mm/hsonnig
05.09.2026 - 06.00Uhr20.1 °C14.5 °C70 %0.0 W/m²10.0 km/hWest-SW16.2 km/h1017.6 hPa0.0 mm0.0 mm/hsonnig
05.09.2026 - 06.05Uhr20.1 °C14.5 °C70 %0.0 W/m²9.8 km/hWest-SW14.4 km/h1017.6 hPa0.0 mm0.0 mm/hsonnig
05.09.2026 - 06.10Uhr20.1 °C14.5 °C70 %0.0 W/m²7.8 km/hWesten13.0 km/h1017.7 hPa0.0 mm0.0 mm/hsonnig
05.09.2026 - 06.15Uhr20.0 °C14.4 °C70 %0.0 W/m²7.7 km/hWest-SW11.2 km/h1017.6 hPa0.0 mm0.0 mm/hsonnig
05.09.2026 - 06.20Uhr20.0 °C14.4 °C70 %0.0 W/m²7.4 km/hWest-SW13.0 km/h1017.6 hPa0.0 mm0.0 mm/hsonnig
05.09.2026 - 06.25Uhr19.9 °C14.3 °C70 %0.0 W/m²8.6 km/hWest-SW14.4 km/h1017.7 hPa0.0 mm0.0 mm/hsonnig
05.09.2026 - 06.30Uhr19.9 °C14.3 °C70 %0.0 W/m²7.2 km/hWest-SW9.7 km/h1017.7 hPa0.0 mm0.0 mm/hsonnig
05.09.2026 - 06.35Uhr19.8 °C14.3 °C70 %0.0 W/m²7.9 km/hSüdwesten17.6 km/h1017.7 hPa0.0 mm0.0 mm/hsonnig
05.09.2026 - 06.40Uhr19.9 °C14.3 °C70 %0.0 W/m²8.9 km/hSüdwesten13.0 km/h1017.6 hPa0.0 mm0.0 mm/hsonnig
05.09.2026 - 06.45Uhr19.9 °C14.3 °C70 %0.0 W/m²8.1 km/hSüdwesten14.4 km/h1017.6 hPa0.0 mm0.0 mm/hsonnig
05.09.2026 - 06.50Uhr20.0 °C14.4 °C70 %0.0 W/m²8.7 km/hWest-SW13.0 km/h1017.6 hPa0.0 mm0.0 mm/hsonnig
05.09.2026 - 06.55Uhr20.0 °C14.4 °C70 %0.0 W/m²8.4 km/hSüdwesten14.4 km/h1017.7 hPa0.0 mm0.0 mm/hsonnig
05.09.2026 - 07.00Uhr20.1 °C14.4 °C70 %0.0 W/m²10.0 km/hWest-SW14.4 km/h1017.8 hPa0.0 mm0.0 mm/hsonnig
05.09.2026 - 07.05Uhr20.1 °C14.5 °C70 %0.0 W/m²9.6 km/hSüdwesten14.4 km/h1017.9 hPa0.0 mm0.0 mm/hwechselhaft
05.09.2026 - 07.10Uhr20.1 °C14.5 °C70 %5.0 W/m²9.7 km/hWest-SW14.4 km/h1018.1 hPa0.0 mm0.0 mm/hwechselhaft
05.09.2026 - 07.15Uhr20.0 °C14.5 °C71 %5.0 W/m²6.9 km/hWest-SW9.7 km/h1018.2 hPa0.0 mm0.0 mm/hwechselhaft
05.09.2026 - 07.20Uhr19.8 °C14.4 °C71 %7.0 W/m²6.9 km/hWest-SW9.7 km/h1018.3 hPa0.0 mm0.0 mm/hwechselhaft
05.09.2026 - 07.25Uhr19.8 °C14.5 °C72 %11.0 W/m²8.3 km/hWest-SW13.0 km/h1018.3 hPa0.0 mm0.0 mm/hwechselhaft
05.09.2026 - 07.30Uhr19.7 °C14.5 °C72 %16.0 W/m²9.0 km/hWest-SW13.0 km/h1018.2 hPa0.0 mm0.0 mm/hwechselhaft
05.09.2026 - 07.35Uhr19.8 °C14.5 °C72 %19.0 W/m²10.7 km/hWesten16.2 km/h1018.3 hPa0.0 mm0.0 mm/hwechselhaft
05.09.2026 - 07.40Uhr19.8 °C14.4 °C71 %21.0 W/m²9.5 km/hWesten13.0 km/h1018.4 hPa0.0 mm0.0 mm/hwechselhaft
05.09.2026 - 07.45Uhr19.9 °C14.4 °C71 %21.0 W/m²11.6 km/hWesten19.4 km/h1018.4 hPa0.0 mm0.0 mm/hwechselhaft
05.09.2026 - 07.50Uhr19.9 °C14.5 °C71 %16.0 W/m²10.6 km/hWesten14.4 km/h1018.5 hPa0.0 mm0.0 mm/hwechselhaft
05.09.2026 - 07.55Uhr19.9 °C14.5 °C71 %21.0 W/m²10.0 km/hWesten16.2 km/h1018.5 hPa0.0 mm0.0 mm/hwechselhaft
05.09.2026 - 08.00Uhr19.9 °C14.5 °C71 %35.0 W/m²10.8 km/hWesten17.6 km/h1018.5 hPa0.0 mm0.0 mm/hwechselhaft
05.09.2026 - 08.05Uhr19.9 °C14.5 °C71 %42.0 W/m²10.9 km/hWesten14.4 km/h1018.6 hPa0.0 mm0.0 mm/hsonnig
05.09.2026 - 08.10Uhr19.9 °C14.5 °C71 %42.0 W/m²10.3 km/hWesten16.2 km/h1018.6 hPa0.0 mm0.0 mm/hsonnig
05.09.2026 - 08.15Uhr20.0 °C14.6 °C71 %37.0 W/m²11.8 km/hWest-SW19.4 km/h1018.7 hPa0.0 mm0.0 mm/hsonnig
05.09.2026 - 08.20Uhr20.0 °C14.6 °C71 %33.0 W/m²13.2 km/hWesten22.7 km/h1018.8 hPa0.0 mm0.0 mm/hsonnig
05.09.2026 - 08.25Uhr20.0 °C14.6 °C71 %30.0 W/m²12.4 km/hWesten19.4 km/h1018.8 hPa0.0 mm0.0 mm/hsonnig
05.09.2026 - 08.30Uhr20.0 °C14.7 °C71 %49.0 W/m²12.2 km/hWesten17.6 km/h1018.9 hPa0.0 mm0.0 mm/hsonnig
05.09.2026 - 08.35Uhr19.9 °C14.8 °C73 %81.0 W/m²10.0 km/hWest-SW14.4 km/h1018.9 hPa0.0 mm0.0 mm/hsonnig
05.09.2026 - 08.40Uhr19.7 °C14.8 °C74 %116.0 W/m²10.7 km/hWest-SW14.4 km/h1019.0 hPa0.0 mm0.0 mm/hsonnig
05.09.2026 - 08.45Uhr19.7 °C14.9 °C74 %114.0 W/m²10.2 km/hWesten14.4 km/h1019.0 hPa0.0 mm0.0 mm/hsonnig
05.09.2026 - 08.50Uhr19.7 °C14.9 °C74 %120.0 W/m²7.5 km/hWest-SW13.0 km/h1019.1 hPa0.0 mm0.0 mm/hsonnig
05.09.2026 - 08.55Uhr19.7 °C14.9 °C74 %134.0 W/m²6.2 km/hWesten9.7 km/h1019.1 hPa0.0 mm0.0 mm/hsonnig
05.09.2026 - 09.00Uhr19.8 °C15.0 °C74 %130.0 W/m²6.2 km/hWest-SW9.7 km/h1019.0 hPa0.0 mm0.0 mm/hsonnig
05.09.2026 - 09.05Uhr19.8 °C15.1 °C74 %160.0 W/m²4.5 km/hWesten9.7 km/h1019.1 hPa0.0 mm0.0 mm/hsonnig
05.09.2026 - 09.10Uhr20.0 °C15.1 °C73 %165.0 W/m²6.5 km/hWesten9.7 km/h1019.1 hPa0.0 mm0.0 mm/hsonnig
05.09.2026 - 09.15Uhr20.2 °C15.1 °C72 %156.0 W/m²10.0 km/hWesten14.4 km/h1019.3 hPa0.0 mm0.0 mm/hsonnig
05.09.2026 - 09.20Uhr20.3 °C15.1 °C72 %181.0 W/m²10.0 km/hWesten14.4 km/h1019.3 hPa0.0 mm0.0 mm/hsonnig
05.09.2026 - 09.25Uhr20.3 °C15.1 °C72 %283.0 W/m²10.1 km/hWest-NW16.2 km/h1019.3 hPa0.0 mm0.0 mm/hsonnig
05.09.2026 - 09.30Uhr20.4 °C15.1 °C71 %255.0 W/m²10.9 km/hWesten16.2 km/h1019.4 hPa0.0 mm0.0 mm/hsonnig
05.09.2026 - 09.35Uhr20.5 °C15.1 °C71 %237.0 W/m²6.8 km/hWesten14.4 km/h1019.5 hPa0.0 mm0.0 mm/hsonnig
05.09.2026 - 09.40Uhr20.6 °C15.2 °C71 %262.0 W/m²9.9 km/hWesten14.4 km/h1019.5 hPa0.0 mm0.0 mm/hsonnig
05.09.2026 - 09.45Uhr20.6 °C15.0 °C70 %381.0 W/m²9.7 km/hWesten14.4 km/h1019.5 hPa0.0 mm0.0 mm/hsonnig
05.09.2026 - 09.50Uhr20.7 °C15.0 °C70 %381.0 W/m²9.9 km/hWesten14.4 km/h1019.5 hPa0.0 mm0.0 mm/hsonnig
05.09.2026 - 09.55Uhr20.8 °C15.1 °C70 %181.0 W/m²8.9 km/hWesten14.4 km/h1019.6 hPa0.0 mm0.0 mm/hsonnig
05.09.2026 - 10.00Uhr20.6 °C14.9 °C70 %190.0 W/m²8.7 km/hWest-SW16.2 km/h1019.6 hPa0.0 mm0.0 mm/hsonnig
05.09.2026 - 10.05Uhr20.7 °C15.0 °C70 %167.0 W/m²13.9 km/hWest-NW22.7 km/h1019.8 hPa0.0 mm0.0 mm/hsonnig
05.09.2026 - 10.10Uhr20.7 °C15.0 °C70 %151.0 W/m²11.5 km/hWest-NW16.2 km/h1019.8 hPa0.0 mm0.0 mm/hsonnig
05.09.2026 - 10.15Uhr20.8 °C15.1 °C70 %213.0 W/m²10.4 km/hWesten14.4 km/h1019.8 hPa0.0 mm0.0 mm/hsonnig
05.09.2026 - 10.20Uhr20.8 °C15.1 °C70 %213.0 W/m²11.5 km/hWesten14.4 km/h1019.9 hPa0.0 mm0.0 mm/hsonnig
05.09.2026 - 10.25Uhr20.8 °C15.1 °C70 %156.0 W/m²12.4 km/hWesten17.6 km/h1020.0 hPa0.0 mm0.0 mm/hsonnig
05.09.2026 - 10.30Uhr20.7 °C15.0 °C70 %188.0 W/m²11.9 km/hWesten17.6 km/h1020.0 hPa0.0 mm0.0 mm/hsonnig
05.09.2026 - 10.35Uhr20.8 °C15.1 °C70 %241.0 W/m²10.6 km/hWesten20.9 km/h1020.0 hPa0.0 mm0.0 mm/hsonnig
05.09.2026 - 10.40Uhr20.8 °C15.2 °C70 %246.0 W/m²8.2 km/hWesten14.4 km/h1020.1 hPa0.0 mm0.0 mm/hsonnig
05.09.2026 - 10.45Uhr20.9 °C15.2 °C70 %244.0 W/m²9.5 km/hWesten13.0 km/h1020.2 hPa0.0 mm0.0 mm/hsonnig
05.09.2026 - 10.50Uhr21.1 °C15.2 °C69 %246.0 W/m²9.6 km/hWest-NW14.4 km/h1020.2 hPa0.0 mm0.0 mm/hsonnig
05.09.2026 - 10.55Uhr21.2 °C15.4 °C70 %260.0 W/m²9.3 km/hWesten14.4 km/h1020.2 hPa0.0 mm0.0 mm/hsonnig
05.09.2026 - 11.00Uhr21.1 °C15.2 °C69 %304.0 W/m²8.5 km/hWest-SW11.2 km/h1020.3 hPa0.0 mm0.0 mm/hsonnig
05.09.2026 - 11.05Uhr21.1 °C15.3 °C69 %306.0 W/m²8.8 km/hWest-SW16.2 km/h1020.3 hPa0.0 mm0.0 mm/hsonnig
05.09.2026 - 11.10Uhr21.2 °C15.3 °C69 %281.0 W/m²10.3 km/hWesten16.2 km/h1020.4 hPa0.0 mm0.0 mm/hsonnig
05.09.2026 - 11.15Uhr21.3 °C15.4 °C69 %281.0 W/m²9.8 km/hWest-SW16.2 km/h1020.4 hPa0.0 mm0.0 mm/hsonnig
05.09.2026 - 11.20Uhr21.3 °C15.4 °C69 %221.0 W/m²11.5 km/hWesten16.2 km/h1020.4 hPa0.0 mm0.0 mm/hsonnig
05.09.2026 - 11.25Uhr21.2 °C15.3 °C69 %174.0 W/m²8.1 km/hWest-NW13.0 km/h1020.5 hPa0.0 mm0.0 mm/hsonnig
05.09.2026 - 11.30Uhr21.1 °C15.4 °C70 %121.0 W/m²7.8 km/hWest-NW11.2 km/h1020.5 hPa0.0 mm0.0 mm/hsonnig
05.09.2026 - 11.35Uhr21.1 °C15.4 °C70 %151.0 W/m²4.9 km/hWesten7.9 km/h1020.6 hPa0.0 mm0.0 mm/hsonnig
05.09.2026 - 11.40Uhr21.2 °C15.5 °C70 %151.0 W/m²5.9 km/hNordwesten9.7 km/h1020.6 hPa0.0 mm0.0 mm/hsonnig
05.09.2026 - 11.45Uhr21.2 °C15.5 °C70 %144.0 W/m²7.6 km/hWest-NW11.2 km/h1020.6 hPa0.0 mm0.0 mm/hsonnig
05.09.2026 - 11.50Uhr21.2 °C15.5 °C70 %163.0 W/m²5.8 km/hWest-NW9.7 km/h1020.6 hPa0.0 mm0.0 mm/hsonnig
05.09.2026 - 11.55Uhr21.3 °C15.6 °C70 %193.0 W/m²9.1 km/hNordwesten11.2 km/h1020.6 hPa0.0 mm0.0 mm/hsonnig
05.09.2026 - 12.00Uhr21.2 °C15.5 °C70 %258.0 W/m²7.8 km/hNordwesten9.7 km/h1020.5 hPa0.0 mm0.0 mm/hsonnig
05.09.2026 - 12.05Uhr21.3 °C15.7 °C70 %232.0 W/m²8.4 km/hWest-NW13.0 km/h1020.5 hPa0.0 mm0.0 mm/hsonnig
05.09.2026 - 12.10Uhr21.4 °C15.7 °C70 %322.0 W/m²7.7 km/hWest-NW11.2 km/h1020.5 hPa0.0 mm0.0 mm/hsonnig
05.09.2026 - 12.15Uhr21.3 °C15.6 °C70 %287.0 W/m²9.4 km/hWest-NW13.0 km/h1020.5 hPa0.0 mm0.0 mm/hsonnig
05.09.2026 - 12.20Uhr21.5 °C15.8 °C70 %311.0 W/m²10.3 km/hWest-NW17.6 km/h1020.6 hPa0.0 mm0.0 mm/hsonnig
05.09.2026 - 12.25Uhr21.7 °C15.8 °C69 %348.0 W/m²10.4 km/hWest-NW14.4 km/h1020.7 hPa0.0 mm0.0 mm/hsonnig
05.09.2026 - 12.30Uhr21.7 °C15.9 °C70 %352.0 W/m²10.9 km/hWesten17.6 km/h1020.7 hPa0.0 mm0.0 mm/hsonnig
05.09.2026 - 12.35Uhr21.7 °C15.9 °C69 %362.0 W/m²11.0 km/hWest-NW16.2 km/h1020.7 hPa0.0 mm0.0 mm/hsonnig
05.09.2026 - 12.40Uhr21.8 °C16.0 °C70 %489.0 W/m²10.6 km/hWest-NW17.6 km/h1020.7 hPa0.0 mm0.0 mm/hsonnig
05.09.2026 - 12.45Uhr22.0 °C16.2 °C70 %489.0 W/m²10.5 km/hWesten16.2 km/h1020.6 hPa0.0 mm0.0 mm/hsonnig
05.09.2026 - 12.50Uhr22.4 °C16.4 °C69 %990.0 W/m²9.9 km/hWest-NW16.2 km/h1020.6 hPa0.0 mm0.0 mm/hsonnig
05.09.2026 - 12.55Uhr22.8 °C16.4 °C67 %628.0 W/m²13.7 km/hWesten19.4 km/h1020.5 hPa0.0 mm0.0 mm/hsonnig
05.09.2026 - 13.00Uhr22.5 °C16.1 °C67 %425.0 W/m²11.4 km/hWesten14.4 km/h1020.6 hPa0.0 mm0.0 mm/hsonnig
05.09.2026 - 13.05Uhr22.3 °C16.0 °C68 %343.0 W/m²11.4 km/hWesten17.6 km/h1020.6 hPa0.0 mm0.0 mm/hsonnig
05.09.2026 - 13.10Uhr22.2 °C15.9 °C68 %325.0 W/m²11.4 km/hWest-SW19.4 km/h1020.6 hPa0.0 mm0.0 mm/hsonnig
05.09.2026 - 13.15Uhr22.3 °C16.1 °C68 %352.0 W/m²10.4 km/hWest-NW16.2 km/h1020.6 hPa0.0 mm0.0 mm/hsonnig
05.09.2026 - 13.20Uhr22.6 °C16.1 °C67 %411.0 W/m²10.3 km/hWest-NW16.2 km/h1020.6 hPa0.0 mm0.0 mm/hsonnig
05.09.2026 - 13.25Uhr22.7 °C16.1 °C66 %313.0 W/m²12.0 km/hWest-NW16.2 km/h1020.6 hPa0.0 mm0.0 mm/hsonnig
05.09.2026 - 13.30Uhr22.7 °C16.3 °C67 %142.0 W/m²9.7 km/hWest-NW14.4 km/h1020.7 hPa0.0 mm0.0 mm/hsonnig
05.09.2026 - 13.35Uhr22.4 °C16.0 °C67 %86.0 W/m²9.5 km/hWest-NW14.4 km/h1020.8 hPa0.0 mm0.0 mm/hsonnig
05.09.2026 - 13.40Uhr22.0 °C15.9 °C68 %158.0 W/m²6.4 km/hWest-NW9.7 km/h1020.8 hPa0.0 mm0.0 mm/hsonnig
05.09.2026 - 13.45Uhr22.1 °C16.1 °C69 %179.0 W/m²11.1 km/hWest-NW16.2 km/h1020.8 hPa0.0 mm0.0 mm/hsonnig
05.09.2026 - 13.50Uhr21.9 °C16.1 °C70 %216.0 W/m²14.5 km/hNordwesten22.7 km/h1020.8 hPa0.0 mm0.0 mm/hsonnig
05.09.2026 - 13.55Uhr21.7 °C16.1 °C71 %204.0 W/m²14.5 km/hWest-NW17.6 km/h1020.8 hPa0.0 mm0.0 mm/hsonnig